Time;durP1;ratioP1;P1;durP2;ratioP2;P2;SDS_P1;SDS_P2;PMS_P1;PMS_P2;Temp;Humidity;BMP_temperature;BMP_pressure;BME280_temperature;BME280_humidity;BME280_pressure;Samples;Min_cycle;Max_cycle;Signal;HPM_P1;HPM_P2
2022/05/15 00:02:09;;;;;;;11.43;6.47;;;13.70;99.90;;;;;;5051610;28;20176;-59
2022/05/15 00:04:37;;;;;;;15.60;7.03;;;13.70;99.90;;;;;;5051615;28;20227;-58
2022/05/15 00:07:05;;;;;;;16.23;6.67;;;13.70;99.90;;;;;;5051659;28;20200;-59
2022/05/15 00:09:32;;;;;;;13.47;6.30;;;13.70;99.90;;;;;;5051623;28;20199;-59
2022/05/15 00:12:02;;;;;;;13.07;5.93;;;13.60;99.90;;;;;;5051528;28;20218;-59
2022/05/15 00:14:30;;;;;;;14.43;6.97;;;13.60;99.90;;;;;;5055188;28;20184;-59
2022/05/15 00:16:56;;;;;;;12.07;6.50;;;13.50;99.90;;;;;;5055271;28;20199;-59
2022/05/15 00:19:23;;;;;;;17.83;6.47;;;13.50;99.90;;;;;;5055195;28;20227;-59
2022/05/15 00:21:50;;;;;;;12.77;6.77;;;13.50;99.90;;;;;;5055161;28;20202;-59
2022/05/15 00:24:18;;;;;;;13.03;6.83;;;13.50;99.90;;;;;;5055114;28;20660;-59
2022/05/15 00:26:45;;;;;;;15.60;6.40;;;13.40;99.90;;;;;;5054656;28;20235;-60
2022/05/15 00:29:13;;;;;;;14.20;6.20;;;13.40;99.90;;;;;;5054973;28;20206;-59
2022/05/15 00:31:40;;;;;;;12.73;6.40;;;13.40;99.90;;;;;;5054967;28;20195;-59
2022/05/15 00:34:07;;;;;;;13.27;6.37;;;13.30;99.90;;;;;;5054996;28;20207;-59
2022/05/15 00:36:34;;;;;;;13.87;6.47;;;13.30;99.90;;;;;;5054853;28;20204;-59
2022/05/15 00:39:01;;;;;;;17.70;6.87;;;13.20;99.90;;;;;;5054651;28;20294;-59
2022/05/15 00:41:29;;;;;;;15.13;6.57;;;13.20;99.90;;;;;;5054752;28;20211;-59
2022/05/15 00:43:57;;;;;;;12.93;6.73;;;13.20;99.90;;;;;;5054764;28;20231;-59
2022/05/15 00:46:28;;;;;;;15.30;7.03;;;13.20;99.90;;;;;;5054701;28;20199;-59
2022/05/15 00:48:56;;;;;;;17.40;7.30;;;13.20;99.90;;;;;;5054675;28;20250;-59
2022/05/15 00:51:27;;;;;;;16.67;7.60;;;13.10;99.90;;;;;;5054203;28;20679;-59
2022/05/15 00:54:00;;;;;;;12.70;6.80;;;13.00;99.90;;;;;;5054592;28;20321;-59
2022/05/15 00:56:32;;;;;;;14.30;6.60;;;13.10;99.90;;;;;;5054483;28;20275;-59
2022/05/15 00:59:04;;;;;;;12.30;6.73;;;13.00;99.90;;;;;;5054311;28;20623;-58
2022/05/15 01:01:32;;;;;;;12.43;6.80;;;13.00;99.90;;;;;;5054443;28;20249;-59
2022/05/15 01:04:00;;;;;;;15.87;7.63;;;13.00;99.90;;;;;;5054404;28;20206;-58
2022/05/15 01:06:29;;;;;;;13.73;7.10;;;12.90;99.90;;;;;;5054018;28;20206;-59
2022/05/15 01:08:56;;;;;;;12.70;7.10;;;12.90;99.90;;;;;;5053913;28;20305;-59
2022/05/15 01:11:25;;;;;;;14.67;7.10;;;12.90;99.90;;;;;;5054174;28;20201;-59
2022/05/15 01:13:53;;;;;;;13.43;6.90;;;12.90;99.90;;;;;;5053777;28;20208;-59
2022/05/15 01:16:23;;;;;;;17.87;7.63;;;12.80;99.90;;;;;;5054385;28;20211;-59
2022/05/15 01:18:56;;;;;;;15.17;7.17;;;12.80;99.90;;;;;;5053846;28;20195;-59
2022/05/15 01:21:28;;;;;;;17.77;7.43;;;12.80;99.90;;;;;;5053806;28;20225;-58
2022/05/15 01:23:56;;;;;;;12.80;7.30;;;12.80;99.90;;;;;;5053037;28;20184;-58
2022/05/15 01:26:24;;;;;;;16.60;8.00;;;12.80;99.90;;;;;;5053545;28;20231;-59
2022/05/15 01:28:51;;;;;;;12.60;7.00;;;12.70;99.90;;;;;;5053872;28;20207;-59
2022/05/15 01:31:19;;;;;;;14.07;7.63;;;12.70;99.90;;;;;;5053951;28;20214;-59
2022/05/15 01:33:48;;;;;;;14.70;6.93;;;12.70;99.90;;;;;;5053870;28;20287;-58
2022/05/15 01:36:16;;;;;;;17.93;7.47;;;12.70;99.90;;;;;;5053599;28;20356;-59
2022/05/15 01:38:44;;;;;;;13.27;8.07;;;12.60;99.90;;;;;;5052997;28;20241;-59
2022/05/15 01:41:12;;;;;;;13.37;7.50;;;12.60;99.90;;;;;;5053153;28;20195;-59
2022/05/15 01:43:40;;;;;;;14.93;7.27;;;12.60;99.90;;;;;;5053019;28;20218;-59
2022/05/15 01:46:08;;;;;;;13.77;7.77;;;12.60;99.90;;;;;;5053603;28;20203;-59
2022/05/15 01:48:35;;;;;;;16.10;7.90;;;12.60;99.90;;;;;;5052866;28;20204;-58
2022/05/15 01:51:03;;;;;;;14.83;7.77;;;12.60;99.90;;;;;;5053272;28;20199;-59
2022/05/15 01:53:30;;;;;;;13.93;7.73;;;12.60;99.90;;;;;;5053636;28;20208;-59
2022/05/15 01:55:58;;;;;;;11.77;7.70;;;12.50;99.90;;;;;;5052807;28;20203;-59
2022/05/15 01:58:25;;;;;;;16.70;8.43;;;12.50;99.90;;;;;;5053246;28;20195;-59
2022/05/15 02:00:52;;;;;;;14.03;8.37;;;12.50;99.90;;;;;;5053013;28;20199;-59
2022/05/15 02:03:19;;;;;;;14.67;8.10;;;12.40;99.90;;;;;;5053270;28;20210;-59
2022/05/15 02:05:46;;;;;;;14.50;8.00;;;12.40;99.90;;;;;;5052944;28;20210;-58
2022/05/15 02:08:13;;;;;;;15.63;8.00;;;12.40;99.90;;;;;;5053111;28;20211;-58
2022/05/15 02:10:40;;;;;;;18.83;8.40;;;12.40;99.90;;;;;;5053187;28;20280;-59
2022/05/15 02:13:08;;;;;;;17.53;8.07;;;12.30;99.90;;;;;;5052945;28;20230;-59
2022/05/15 02:15:35;;;;;;;13.73;7.87;;;12.40;99.90;;;;;;5052660;28;20206;-59
2022/05/15 02:18:04;;;;;;;15.53;8.10;;;12.40;99.90;;;;;;5052969;28;20282;-58
2022/05/15 02:20:31;;;;;;;13.37;7.80;;;12.30;99.90;;;;;;5052994;28;20226;-59
2022/05/15 02:22:58;;;;;;;16.23;8.27;;;12.30;99.90;;;;;;5053122;28;20202;-59
2022/05/15 02:25:27;;;;;;;16.73;7.80;;;12.20;99.90;;;;;;5052728;28;20202;-59
2022/05/15 02:27:54;;;;;;;16.67;7.77;;;12.20;99.90;;;;;;5052849;28;20183;-58
2022/05/15 02:30:23;;;;;;;13.00;7.37;;;12.10;99.90;;;;;;5052685;28;20629;-58
2022/05/15 02:32:51;;;;;;;14.37;7.73;;;12.00;99.90;;;;;;5052320;28;20215;-58
2022/05/15 02:35:19;;;;;;;16.33;7.60;;;12.00;99.90;;;;;;5051963;28;20203;-58
2022/05/15 02:37:47;;;;;;;14.53;7.27;;;12.00;99.90;;;;;;5052691;28;20201;-59
2022/05/15 02:40:15;;;;;;;15.63;7.90;;;12.00;99.90;;;;;;5052647;28;20213;-59
2022/05/15 02:42:42;;;;;;;16.50;7.63;;;11.90;99.90;;;;;;5052573;28;20202;-59
2022/05/15 02:45:09;;;;;;;12.90;7.47;;;11.80;99.90;;;;;;5052183;28;20663;-59
2022/05/15 02:47:38;;;;;;;12.93;7.40;;;11.80;99.90;;;;;;5052448;28;20209;-59
2022/05/15 02:52:53;;;;;;;20.23;8.43;;;11.70;99.90;;;;;;5052597;28;20258;-59
2022/05/15 02:55:20;;;;;;;15.00;8.33;;;11.70;99.90;;;;;;5052453;28;20602;-59
2022/05/15 02:57:48;;;;;;;14.20;7.87;;;11.70;99.90;;;;;;5052409;28;20204;-59
2022/05/15 03:00:16;;;;;;;14.73;8.03;;;11.70;99.90;;;;;;5052224;28;20206;-58
2022/05/15 03:02:44;;;;;;;16.30;8.47;;;11.60;99.90;;;;;;5051893;28;20651;-58
2022/05/15 03:05:12;;;;;;;12.73;7.40;;;11.60;99.90;;;;;;5051961;28;20697;-58
2022/05/15 03:07:40;;;;;;;13.90;8.13;;;11.60;99.90;;;;;;5052288;28;20213;-59
2022/05/15 03:10:08;;;;;;;13.53;7.87;;;11.50;99.90;;;;;;5051987;28;20221;-58
2022/05/15 03:12:35;;;;;;;14.17;8.00;;;11.50;99.90;;;;;;5052062;28;20205;-59
2022/05/15 03:15:02;;;;;;;14.60;8.10;;;11.50;99.90;;;;;;5051992;28;20240;-58
2022/05/15 03:17:29;;;;;;;14.23;8.43;;;11.40;99.90;;;;;;5052055;28;20205;-58
2022/05/15 03:19:58;;;;;;;14.87;8.20;;;11.40;99.90;;;;;;5052112;28;20204;-58
2022/05/15 03:22:25;;;;;;;12.50;8.00;;;11.40;99.90;;;;;;5052171;28;20215;-59
2022/05/15 03:24:52;;;;;;;16.37;8.43;;;11.40;99.90;;;;;;5051717;28;20201;-59
2022/05/15 03:27:19;;;;;;;17.20;8.97;;;11.40;99.90;;;;;;5051898;28;20238;-58
2022/05/15 03:29:46;;;;;;;16.13;8.73;;;11.40;99.90;;;;;;5051641;28;20202;-58
2022/05/15 03:32:13;;;;;;;17.73;8.30;;;11.30;99.90;;;;;;5052082;28;20217;-58
2022/05/15 03:34:40;;;;;;;19.77;8.93;;;11.40;99.90;;;;;;5051587;28;20258;-58
2022/05/15 03:37:08;;;;;;;16.73;8.03;;;11.30;99.90;;;;;;5051854;28;20610;-58
2022/05/15 03:39:35;;;;;;;12.23;8.07;;;11.30;99.90;;;;;;5051668;28;20207;-59
2022/05/15 03:42:02;;;;;;;12.63;8.13;;;11.30;99.90;;;;;;5052198;28;20307;-59
2022/05/15 03:44:29;;;;;;;17.37;8.57;;;11.30;99.90;;;;;;5051803;28;20288;-59
2022/05/15 03:46:56;;;;;;;16.67;8.57;;;11.30;99.90;;;;;;5053291;28;20206;-59
2022/05/15 03:49:23;;;;;;;16.70;9.23;;;11.30;99.90;;;;;;5055526;28;20215;-59
2022/05/15 03:51:50;;;;;;;15.00;8.03;;;11.30;99.90;;;;;;5049715;28;20201;-59
2022/05/15 03:54:18;;;;;;;15.00;8.47;;;11.30;99.90;;;;;;5035921;28;20221;-59
2022/05/15 03:56:51;;;;;;;17.27;8.60;;;11.30;99.90;;;;;;5035849;28;20623;-59
2022/05/15 03:59:20;;;;;;;14.90;8.20;;;11.30;99.90;;;;;;5035450;28;20212;-58
2022/05/15 04:01:48;;;;;;;15.97;8.90;;;11.30;99.90;;;;;;5035690;28;20221;-58
2022/05/15 04:04:15;;;;;;;15.03;9.27;;;11.30;99.90;;;;;;5035751;28;20248;-58
2022/05/15 04:06:42;;;;;;;14.03;8.77;;;11.40;99.90;;;;;;5035646;28;20205;-59
2022/05/15 04:09:09;;;;;;;15.00;8.40;;;11.30;99.90;;;;;;5035687;28;20203;-58
2022/05/15 04:11:37;;;;;;;17.03;8.27;;;11.40;99.90;;;;;;5035586;28;20193;-59
2022/05/15 04:14:05;;;;;;;14.17;8.70;;;11.50;99.90;;;;;;5035447;28;20237;-59
2022/05/15 04:16:32;;;;;;;14.10;8.97;;;11.60;99.90;;;;;;5035477;28;20197;-58
2022/05/15 04:18:59;;;;;;;15.63;9.90;;;11.60;99.90;;;;;;5035570;28;20283;-58
2022/05/15 04:21:26;;;;;;;15.70;8.47;;;11.70;99.90;;;;;;5035266;28;20683;-59
2022/05/15 04:23:53;;;;;;;18.17;9.30;;;11.70;99.90;;;;;;5035457;28;20202;-58
2022/05/15 04:26:21;;;;;;;15.67;9.37;;;11.80;99.90;;;;;;5034907;28;20230;-61
2022/05/15 04:28:49;;;;;;;16.10;9.30;;;11.80;99.90;;;;;;5035297;28;20208;-61
2022/05/15 04:31:16;;;;;;;18.60;9.37;;;11.90;99.90;;;;;;5035178;28;20233;-61
2022/05/15 04:33:44;;;;;;;20.30;9.77;;;11.90;99.90;;;;;;5035081;28;20317;-60
2022/05/15 04:36:11;;;;;;;20.00;9.83;;;11.90;99.90;;;;;;5034893;28;20203;-62
2022/05/15 04:38:38;;;;;;;16.67;9.10;;;12.00;99.90;;;;;;5035022;28;20310;-61
2022/05/15 04:41:05;;;;;;;18.00;9.27;;;12.00;99.90;;;;;;5035154;28;20203;-61
2022/05/15 04:43:32;;;;;;;15.50;9.50;;;12.10;99.90;;;;;;5034969;28;20215;-61
2022/05/15 04:46:03;;;;;;;16.60;9.77;;;12.20;99.90;;;;;;5034929;28;20207;-61
2022/05/15 04:48:30;;;;;;;14.07;9.17;;;12.30;99.90;;;;;;5034903;28;20184;-61
2022/05/15 04:50:57;;;;;;;16.77;10.40;;;12.40;99.90;;;;;;5034891;28;20283;-61
2022/05/15 04:53:24;;;;;;;16.77;9.73;;;12.50;99.90;;;;;;5034679;28;20315;-61
2022/05/15 04:55:51;;;;;;;18.33;10.17;;;12.70;99.90;;;;;;5034766;28;20557;-62
2022/05/15 04:58:18;;;;;;;16.17;8.73;;;12.80;99.90;;;;;;5033611;28;20207;-61
2022/05/15 05:00:45;;;;;;;13.27;9.20;;;12.90;99.90;;;;;;5034753;28;20226;-61
2022/05/15 05:03:13;;;;;;;16.50;9.60;;;13.00;99.90;;;;;;5034611;28;20196;-60
2022/05/15 05:05:40;;;;;;;14.33;8.83;;;13.20;99.90;;;;;;5034592;28;20234;-60
2022/05/15 05:08:09;;;;;;;13.90;8.80;;;13.40;99.90;;;;;;5034474;28;20203;-61
2022/05/15 05:10:36;;;;;;;17.50;9.73;;;13.60;99.90;;;;;;5034191;28;20203;-61
2022/05/15 05:13:04;;;;;;;12.33;8.67;;;13.90;99.90;;;;;;5033914;28;20204;-61
2022/05/15 05:15:31;;;;;;;15.10;7.90;;;14.40;99.90;;;;;;5034469;28;20207;-62
2022/05/15 05:17:58;;;;;;;12.90;9.00;;;14.90;99.90;;;;;;5034100;28;20279;-61
2022/05/15 05:20:27;;;;;;;16.87;8.97;;;14.90;99.90;;;;;;5034349;28;20683;-60
2022/05/15 05:22:54;;;;;;;14.57;9.07;;;14.90;99.90;;;;;;5034201;28;20196;-60
2022/05/15 05:25:21;;;;;;;13.60;9.17;;;14.80;99.90;;;;;;5033924;28;20189;-62
2022/05/15 05:27:48;;;;;;;17.20;8.87;;;15.20;99.90;;;;;;5034121;28;20216;-61
2022/05/15 05:30:18;;;;;;;17.07;8.83;;;15.80;99.90;;;;;;5034149;28;20198;-62
2022/05/15 05:32:46;;;;;;;15.90;8.13;;;16.30;99.90;;;;;;5034084;28;20567;-62
2022/05/15 05:35:15;;;;;;;13.10;8.33;;;16.80;99.90;;;;;;5033996;28;20274;-63
2022/05/15 05:37:43;;;;;;;12.20;8.27;;;17.10;99.90;;;;;;5033697;28;20196;-63
2022/05/15 05:40:12;;;;;;;12.33;7.47;;;17.90;99.90;;;;;;5033953;28;20203;-62
2022/05/15 05:42:39;;;;;;;11.65;8.43;;;18.20;99.90;;;;;;5033592;28;20731;-63
2022/05/15 05:45:08;;;;;;;12.32;8.98;;;18.40;99.90;;;;;;5033619;28;20207;-60
2022/05/15 05:47:35;;;;;;;11.70;8.00;;;18.30;99.90;;;;;;5033646;28;20203;-61
2022/05/15 05:50:03;;;;;;;11.05;8.80;;;18.10;99.90;;;;;;5032992;28;20705;-61
2022/05/15 05:52:29;;;;;;;14.82;9.40;;;17.80;99.90;;;;;;5033395;28;20200;-60
2022/05/15 05:54:58;;;;;;;12.85;8.05;;;17.80;99.90;;;;;;5033515;28;20213;-59
2022/05/15 05:57:25;;;;;;;13.13;8.45;;;18.10;99.90;;;;;;5033280;28;20215;-60
2022/05/15 05:59:52;;;;;;;11.48;7.85;;;18.70;99.90;;;;;;5033275;28;20195;-60
2022/05/15 06:02:19;;;;;;;12.27;8.13;;;19.10;99.90;;;;;;5035185;28;20200;-59
2022/05/15 06:04:46;;;;;;;13.40;8.85;;;19.60;99.90;;;;;;5044126;28;20196;-59
2022/05/15 06:07:15;;;;;;;14.40;9.25;;;19.10;99.90;;;;;;5036945;28;20183;-59
2022/05/15 06:09:44;;;;;;;11.68;8.30;;;19.10;99.90;;;;;;5035749;28;20216;-60
2022/05/15 06:12:15;;;;;;;10.85;7.75;;;19.70;99.90;;;;;;5032861;28;20218;-60
2022/05/15 06:14:42;;;;;;;10.45;7.78;;;20.20;99.90;;;;;;5033208;28;20203;-60
2022/05/15 06:17:09;;;;;;;11.75;8.02;;;20.40;99.90;;;;;;5037231;28;20203;-61
2022/05/15 06:19:37;;;;;;;11.07;8.80;;;20.60;99.90;;;;;;5038874;28;20202;-60
2022/05/15 06:22:04;;;;;;;11.55;8.55;;;20.60;99.90;;;;;;5039397;28;20229;-59
2022/05/15 06:24:31;;;;;;;9.38;8.40;;;20.70;91.80;;;;;;5053164;28;20560;-60
2022/05/15 06:27:02;;;;;;;10.85;7.90;;;20.40;81.30;;;;;;5052603;28;20717;-61
2022/05/15 06:29:31;;;;;;;10.50;7.40;;;20.70;80.20;;;;;;5052435;28;20196;-60
2022/05/15 06:31:59;;;;;;;10.18;7.53;;;20.90;56.60;;;;;;5052712;28;20206;-60
2022/05/15 06:34:26;;;;;;;9.80;7.40;;;21.40;42.90;;;;;;5048758;28;20212;-60
2022/05/15 06:36:53;;;;;;;11.32;7.57;;;21.40;31.80;;;;;;5032548;28;20212;-60
2022/05/15 06:39:20;;;;;;;9.38;7.20;;;21.80;23.00;;;;;;5032914;28;20196;-60
2022/05/15 06:41:50;;;;;;;12.45;7.63;;;22.00;11.60;;;;;;5032553;28;20200;-59
2022/05/15 06:44:17;;;;;;;9.18;7.43;;;22.30;1.70;;;;;;5032701;28;20201;-60
2022/05/15 06:46:45;;;;;;;12.90;7.32;;;22.20;1.00;;;;;;5032643;28;20204;-60
2022/05/15 06:49:12;;;;;;;10.68;6.95;;;22.40;1.00;;;;;;5032666;28;20214;-62
2022/05/15 06:51:40;;;;;;;9.75;7.07;;;22.70;1.00;;;;;;5032629;28;20200;-61
2022/05/15 06:54:07;;;;;;;11.02;7.13;;;22.30;1.00;;;;;;5032576;28;20220;-60
2022/05/15 06:59:18;;;;;;;9.75;6.50;;;22.50;1.00;;;;;;5032095;28;20187;-62
2022/05/15 07:01:47;;;;;;;10.40;7.18;;;22.50;1.00;;;;;;5032520;28;20200;-62
2022/05/15 07:04:14;;;;;;;8.15;6.40;;;22.80;1.00;;;;;;5032274;28;20199;-64
2022/05/15 07:06:41;;;;;;;10.02;6.70;;;22.70;1.00;;;;;;5032527;28;20322;-62
2022/05/15 07:09:08;;;;;;;10.63;5.57;;;22.80;1.00;;;;;;5032343;28;20583;-62
2022/05/15 07:11:35;;;;;;;9.80;5.65;;;23.30;1.00;;;;;;5032466;28;20192;-62
2022/05/15 07:14:03;;;;;;;9.05;5.25;;;23.90;1.00;;;;;;5032051;28;20223;-62
2022/05/15 07:16:30;;;;;;;9.73;5.70;;;24.10;1.00;;;;;;5032272;28;20196;-62
2022/05/15 07:18:58;;;;;;;8.02;5.85;;;24.40;1.00;;;;;;5032019;28;20200;-62
2022/05/15 07:21:25;;;;;;;10.15;5.35;;;24.20;1.00;;;;;;5033821;28;20227;-62
2022/05/15 07:23:52;;;;;;;8.32;4.90;;;23.80;1.00;;;;;;5039119;28;20215;-62
2022/05/15 07:26:19;;;;;;;7.05;4.43;;;23.90;1.00;;;;;;5038815;28;20286;-63
2022/05/15 07:28:50;;;;;;;6.80;4.28;;;23.80;1.00;;;;;;5038238;28;20204;-63
2022/05/15 07:31:18;;;;;;;10.77;4.47;;;23.90;1.00;;;;;;5038853;28;20271;-62
2022/05/15 07:33:46;;;;;;;9.00;4.72;;;24.00;1.00;;;;;;5038844;28;20207;-62
2022/05/15 07:36:14;;;;;;;6.72;4.50;;;23.80;1.00;;;;;;5038836;28;20200;-62
2022/05/15 07:38:42;;;;;;;8.88;4.13;;;23.90;1.00;;;;;;5038696;28;20207;-62
2022/05/15 07:41:08;;;;;;;6.70;3.97;;;23.80;1.00;;;;;;5038610;28;20196;-62
2022/05/15 07:43:36;;;;;;;8.40;4.50;;;24.10;1.00;;;;;;5038636;28;20565;-62
2022/05/15 07:46:03;;;;;;;6.40;4.18;;;24.00;1.00;;;;;;5038651;28;20188;-62
2022/05/15 07:48:30;;;;;;;6.57;4.18;;;24.20;1.00;;;;;;5038616;28;20556;-63
2022/05/15 07:50:57;;;;;;;9.68;4.22;;;24.10;1.00;;;;;;5038609;28;20218;-62
2022/05/15 07:53:25;;;;;;;8.57;5.30;;;24.10;1.00;;;;;;5038589;28;20196;-63
2022/05/15 07:55:54;;;;;;;9.45;4.30;;;24.70;1.00;;;;;;5038536;28;20216;-63
2022/05/15 07:58:23;;;;;;;8.88;3.60;;;24.00;1.00;;;;;;5038478;28;20212;-62
2022/05/15 08:00:52;;;;;;;7.10;6.38;;;23.90;1.00;;;;;;5038637;28;20196;-64
2022/05/15 08:03:19;;;;;;;6.90;4.18;;;23.60;1.00;;;;;;5038738;28;20196;-63
2022/05/15 08:08:32;;;;;;;7.97;5.25;;;23.70;1.00;;;;;;5038158;28;20275;-63
2022/05/15 08:11:00;;;;;;;8.40;4.18;;;24.10;1.00;;;;;;5038504;28;20627;-60
2022/05/15 08:13:28;;;;;;;7.40;4.00;;;24.80;1.00;;;;;;5038086;28;20744;-61
2022/05/15 08:15:55;;;;;;;6.70;3.58;;;24.80;1.00;;;;;;5038364;28;20303;-60
2022/05/15 08:24:03;;;;;;;9.23;4.20;;;25.80;1.00;;;;;;5016080;28;20212;-60
2022/05/15 08:26:31;;;;;;;8.82;3.80;;;25.60;1.00;;;;;;5015900;28;20236;-61
2022/05/15 08:28:58;;;;;;;6.70;4.20;;;25.80;1.00;;;;;;5015632;28;20263;-60
2022/05/15 08:31:26;;;;;;;8.18;4.38;;;26.20;1.00;;;;;;5016022;28;20295;-60
2022/05/15 08:33:54;;;;;;;11.90;5.28;;;25.80;1.00;;;;;;5012925;28;20224;-60
2022/05/15 08:36:21;;;;;;;11.25;4.68;;;25.60;1.00;;;;;;5011870;28;20217;-61
2022/05/15 08:38:48;;;;;;;10.35;4.40;;;25.60;1.00;;;;;;5012303;28;20247;-61
2022/05/15 08:41:25;;;;;;;8.68;4.00;;;25.70;1.00;;;;;;5012768;28;20290;-60
2022/05/15 08:44:02;;;;;;;10.43;4.70;;;25.90;1.00;;;;;;5012864;28;20205;-61
2022/05/15 08:46:41;;;;;;;9.65;4.40;;;26.50;1.00;;;;;;5012736;28;20232;-62
2022/05/15 08:49:11;;;;;;;10.27;4.78;;;27.00;1.00;;;;;;5012728;28;20189;-60
2022/05/15 08:51:43;;;;;;;7.10;4.53;;;26.70;1.00;;;;;;5012709;28;20213;-60
2022/05/15 08:54:13;;;;;;;6.93;4.68;;;26.80;1.00;;;;;;5012561;28;20208;-61
2022/05/15 08:56:47;;;;;;;8.18;4.88;;;26.50;1.00;;;;;;5019988;28;20208;-60
2022/05/15 08:59:23;;;;;;;8.50;4.75;;;26.70;1.00;;;;;;5034632;28;20573;-60
2022/05/15 09:01:54;;;;;;;8.45;4.20;;;27.20;1.00;;;;;;5034797;28;20527;-60
2022/05/15 09:04:21;;;;;;;8.52;4.95;;;27.10;1.00;;;;;;5034334;28;20231;-60
2022/05/15 09:07:01;;;;;;;7.43;4.65;;;27.70;1.00;;;;;;5034561;28;20295;-60
2022/05/15 09:09:36;;;;;;;9.00;4.80;;;27.50;1.00;;;;;;5034612;28;20188;-63
2022/05/15 09:12:15;;;;;;;7.63;4.93;;;27.50;1.00;;;;;;5034587;28;20195;-64
2022/05/15 09:15:00;;;;;;;8.55;4.60;;;27.30;1.00;;;;;;5034222;28;20212;-62
2022/05/15 09:17:33;;;;;;;7.78;4.25;;;27.50;1.00;;;;;;5034764;28;20184;-63
2022/05/15 09:20:03;;;;;;;6.68;4.10;;;27.90;1.00;;;;;;5034455;28;20192;-64
2022/05/15 09:22:34;;;;;;;8.65;4.97;;;27.60;1.00;;;;;;5034455;28;20192;-63
2022/05/15 09:25:08;;;;;;;7.30;4.40;;;27.30;1.00;;;;;;5034272;28;20180;-63
2022/05/15 09:27:36;;;;;;;7.82;4.55;;;27.20;1.00;;;;;;5033660;28;20434;-62
2022/05/15 09:30:11;;;;;;;10.75;5.15;;;27.20;1.00;;;;;;5034245;28;20633;-62
2022/05/15 09:32:41;;;;;;;7.60;4.60;;;26.90;1.00;;;;;;5033785;28;20191;-61
2022/05/15 09:35:33;;;;;;;7.13;4.32;;;27.40;1.00;;;;;;5033955;28;20216;-63
2022/05/15 09:43:33;;;;;;;7.05;4.07;;;27.70;1.00;;;;;;5033538;28;20199;-63
2022/05/15 09:46:06;;;;;;;8.35;4.10;;;27.30;1.00;;;;;;5033465;28;20279;-62
2022/05/15 09:48:39;;;;;;;7.68;3.95;;;28.00;1.00;;;;;;5033693;28;20189;-62
2022/05/15 09:51:12;;;;;;;8.88;3.95;;;27.50;1.00;;;;;;5033684;28;20189;-63
2022/05/15 09:53:43;;;;;;;6.72;4.15;;;28.00;1.00;;;;;;5033679;28;20192;-62
2022/05/15 09:56:13;;;;;;;9.32;4.60;;;28.00;1.00;;;;;;5033243;28;20204;-63
2022/05/15 09:58:46;;;;;;;9.38;4.25;;;27.30;1.00;;;;;;5033114;28;20657;-63
2022/05/15 10:01:28;;;;;;;7.63;4.20;;;27.20;1.00;;;;;;5033557;28;20195;-62
2022/05/15 10:03:58;;;;;;;7.47;4.50;;;27.00;1.00;;;;;;5033466;28;20256;-62
2022/05/15 10:06:27;;;;;;;6.93;4.47;;;27.20;1.00;;;;;;5033068;28;20657;-63
2022/05/15 10:09:11;;;;;;;8.00;4.70;;;27.60;1.00;;;;;;5033003;28;20751;-63
2022/05/15 10:11:41;;;;;;;9.73;4.82;;;28.20;1.00;;;;;;5033341;28;20534;-63
2022/05/15 10:14:27;;;;;;;8.05;4.72;;;28.20;1.00;;;;;;5033200;28;20185;-63
2022/05/15 10:16:56;;;;;;;6.53;4.22;;;27.70;1.00;;;;;;5033171;28;20308;-63
2022/05/15 10:19:29;;;;;;;6.72;4.05;;;27.90;1.00;;;;;;5033207;28;20551;-63
2022/05/15 10:22:11;;;;;;;7.85;3.92;;;27.70;1.00;;;;;;5033054;28;20188;-63
2022/05/15 10:24:44;;;;;;;9.27;4.63;;;27.90;1.00;;;;;;5033213;28;20185;-63
2022/05/15 10:27:17;;;;;;;7.75;4.25;;;28.00;1.00;;;;;;5032618;28;20698;-64
2022/05/15 10:29:51;;;;;;;7.22;3.78;;;28.30;1.00;;;;;;5032649;28;20556;-63
2022/05/15 10:32:24;;;;;;;7.35;3.78;;;28.40;1.00;;;;;;5033089;28;20185;-62
2022/05/15 10:34:51;;;;;;;6.90;4.03;;;29.20;1.00;;;;;;5033128;28;20187;-62
2022/05/15 10:37:43;;;;;;;11.02;3.97;;;28.30;1.00;;;;;;5032994;28;20208;-63
2022/05/15 10:40:37;;;;;;;5.85;3.40;;;28.40;1.00;;;;;;5032938;28;20272;-64
2022/05/15 10:43:31;;;;;;;6.97;3.90;;;29.10;1.00;;;;;;5030202;28;20311;-64
2022/05/15 10:46:07;;;;;;;7.10;4.63;;;29.90;1.00;;;;;;5032654;28;20180;-64
2022/05/15 10:48:52;;;;;;;6.85;3.80;;;28.90;1.00;;;;;;5032733;28;20195;-64
2022/05/15 10:51:23;;;;;;;8.35;4.53;;;28.40;1.00;;;;;;5032952;28;20192;-64
2022/05/15 10:57:29;;;;;;;7.43;3.67;;;29.00;1.00;;;;;;5031754;28;20222;-64
2022/05/15 11:00:11;;;;;;;6.10;3.75;;;29.80;1.00;;;;;;5032476;28;20194;-63
2022/05/15 11:03:22;;;;;;;8.23;4.00;;;29.70;1.00;;;;;;5032466;28;20231;-63
2022/05/15 11:06:17;;;;;;;8.80;3.80;;;29.80;1.00;;;;;;5032582;28;20191;-64
2022/05/15 11:08:53;;;;;;;7.90;4.40;;;28.80;1.00;;;;;;5032119;28;20180;-64
2022/05/15 11:11:27;;;;;;;7.25;4.03;;;28.40;1.00;;;;;;5032515;28;20576;-64
2022/05/15 11:13:57;;;;;;;7.57;3.80;;;28.90;1.00;;;;;;5032384;28;20188;-64
2022/05/15 11:16:33;;;;;;;5.90;3.70;;;28.90;1.00;;;;;;5032284;28;20572;-63
2022/05/15 11:19:19;;;;;;;5.90;3.78;;;28.70;1.00;;;;;;5032414;28;20180;-64
2022/05/15 11:21:57;;;;;;;8.93;3.90;;;28.80;1.00;;;;;;5032507;28;20191;-64
2022/05/15 11:24:36;;;;;;;7.75;3.42;;;29.80;1.00;;;;;;5032350;28;20281;-64
2022/05/15 11:27:12;;;;;;;5.22;3.67;;;29.40;1.00;;;;;;5031718;28;20350;-64
2022/05/15 11:29:46;;;;;;;8.18;3.88;;;29.40;1.00;;;;;;5032155;28;20187;-64
2022/05/15 11:32:38;;;;;;;5.68;3.60;;;29.40;1.00;;;;;;5032560;28;20184;-64
2022/05/15 11:35:22;;;;;;;5.00;3.40;;;29.40;1.00;;;;;;5031930;28;20203;-63
2022/05/15 11:38:01;;;;;;;6.07;3.30;;;29.10;1.00;;;;;;5032174;28;20242;-64
2022/05/15 11:40:36;;;;;;;5.05;3.38;;;30.00;1.00;;;;;;5032025;28;20199;-64
2022/05/15 11:43:36;;;;;;;8.88;3.72;;;29.80;1.00;;;;;;5032165;28;20184;-64
2022/05/15 11:46:06;;;;;;;5.93;3.55;;;29.80;1.00;;;;;;5031903;28;20177;-64
2022/05/15 11:48:50;;;;;;;6.65;3.40;;;30.10;1.00;;;;;;5032019;28;20200;-64
2022/05/15 11:51:29;;;;;;;5.68;3.65;;;29.60;1.00;;;;;;5031885;28;20184;-64
2022/05/15 11:53:58;;;;;;;6.00;3.50;;;30.10;1.00;;;;;;5031859;28;20211;-65
2022/05/15 11:56:28;;;;;;;5.25;2.85;;;30.60;1.00;;;;;;5031912;28;20236;-65
2022/05/15 11:58:58;;;;;;;6.22;3.60;;;30.60;1.00;;;;;;5031762;28;20283;-64
2022/05/15 12:01:47;;;;;;;5.35;3.10;;;30.80;1.00;;;;;;5031922;28;20231;-65
2022/05/15 12:04:42;;;;;;;5.03;2.75;;;30.50;1.00;;;;;;5031893;28;20204;-63
2022/05/15 12:07:31;;;;;;;7.05;3.05;;;30.30;1.00;;;;;;5031413;28;20737;-64
2022/05/15 12:09:58;;;;;;;4.63;2.90;;;30.60;1.00;;;;;;5035713;28;20279;-64
2022/05/15 12:13:06;;;;;;;5.97;3.35;;;30.30;1.00;;;;;;5035392;28;20669;-63
2022/05/15 12:15:37;;;;;;;6.88;3.38;;;29.90;1.00;;;;;;5035416;28;20684;-64
2022/05/15 12:18:27;;;;;;;6.05;2.97;;;29.30;1.00;;;;;;5035763;28;20191;-63
2022/05/15 12:20:54;;;;;;;5.53;3.40;;;29.10;1.00;;;;;;5032944;28;20572;-63
2022/05/15 12:23:25;;;;;;;5.90;2.60;;;28.80;1.00;;;;;;5035373;28;20204;-63
2022/05/15 12:25:57;;;;;;;6.95;2.53;;;28.70;1.00;;;;;;5035160;28;20251;-63
2022/05/15 12:28:52;;;;;;;5.25;3.25;;;28.70;1.00;;;;;;5034830;28;20605;-63
2022/05/15 12:31:28;;;;;;;6.10;2.78;;;28.70;1.00;;;;;;5035269;28;20238;-63
2022/05/15 12:33:56;;;;;;;6.13;3.15;;;29.30;1.00;;;;;;5035492;28;20188;-63
2022/05/15 12:36:32;;;;;;;4.32;3.28;;;29.50;1.00;;;;;;5035134;28;20224;-63
2022/05/15 12:39:02;;;;;;;3.92;2.55;;;29.00;1.00;;;;;;5035221;28;20603;-63
2022/05/15 12:41:35;;;;;;;8.57;3.15;;;29.70;1.00;;;;;;5034857;28;20200;-63
2022/05/15 12:44:05;;;;;;;4.68;2.65;;;30.00;1.00;;;;;;5035232;28;20184;-63
2022/05/15 12:46:35;;;;;;;7.85;2.70;;;30.60;1.00;;;;;;5035348;28;20199;-63
2022/05/15 12:49:02;;;;;;;6.13;2.75;;;30.70;1.00;;;;;;5034948;28;20204;-64
2022/05/15 12:51:32;;;;;;;5.40;2.33;;;30.60;1.00;;;;;;5034811;28;20212;-64
2022/05/15 12:54:01;;;;;;;5.15;2.83;;;30.80;1.00;;;;;;5034789;28;20203;-64
2022/05/15 12:56:31;;;;;;;3.85;2.80;;;31.00;1.00;;;;;;5034860;28;20255;-65
2022/05/15 12:59:01;;;;;;;5.22;2.92;;;30.50;1.00;;;;;;5034680;28;20205;-64
2022/05/15 13:01:31;;;;;;;4.13;2.25;;;29.70;1.00;;;;;;5034421;28;20653;-64
2022/05/15 13:04:00;;;;;;;8.93;2.65;;;29.80;1.00;;;;;;5034703;28;20211;-63
2022/05/15 13:06:34;;;;;;;6.30;3.03;;;29.60;1.00;;;;;;5034791;28;20196;-64
2022/05/15 13:09:06;;;;;;;5.55;2.80;;;29.40;1.00;;;;;;5034851;28;20290;-64
2022/05/15 13:11:41;;;;;;;4.10;2.67;;;29.40;1.00;;;;;;5034415;28;20176;-64
2022/05/15 13:14:18;;;;;;;4.05;2.78;;;29.60;1.00;;;;;;5034620;28;20273;-64
2022/05/15 13:16:48;;;;;;;4.00;2.50;;;30.00;1.00;;;;;;5034975;28;20203;-64
2022/05/15 13:19:19;;;;;;;6.20;2.67;;;30.10;1.00;;;;;;5033707;28;20185;-63
2022/05/15 13:21:50;;;;;;;3.50;2.60;;;30.40;1.00;;;;;;5034411;28;20572;-64
2022/05/15 13:24:19;;;;;;;5.13;2.88;;;30.20;1.00;;;;;;5034302;28;20184;-64
2022/05/15 13:26:48;;;;;;;3.95;2.40;;;29.90;1.00;;;;;;5034067;28;20228;-65